Time;durP1;ratioP1;P1;durP2;ratioP2;P2;SDS_P1;SDS_P2;PMS_P1;PMS_P2;Temp;Humidity;BMP_temperature;BMP_pressure;BME280_temperature;BME280_humidity;BME280_pressure;Samples;Min_cycle;Max_cycle;Signal;HPM_P1;HPM_P2
2023/11/19 00:00:33;;;;;;;10.90;4.80;;;15.00;99.90;;;;;;7289957;19;20215;-81
2023/11/19 00:02:59;;;;;;;11.97;4.50;;;14.90;99.90;;;;;;7288795;19;20195;-81
2023/11/19 00:05:25;;;;;;;12.97;5.07;;;15.00;99.90;;;;;;7289742;19;20191;-81
2023/11/19 00:07:50;;;;;;;8.53;4.07;;;15.00;99.90;;;;;;7288961;19;20188;-81
2023/11/19 00:10:18;;;;;;;12.40;4.10;;;15.00;99.90;;;;;;7288520;19;20188;-81
2023/11/19 00:12:46;;;;;;;16.13;4.50;;;15.00;99.90;;;;;;7290907;19;20193;-81
2023/11/19 00:15:16;;;;;;;13.17;4.07;;;15.10;99.90;;;;;;7290713;19;20241;-81
2023/11/19 00:17:44;;;;;;;16.23;3.90;;;15.10;99.90;;;;;;7293382;19;20192;-80
2023/11/19 00:20:11;;;;;;;10.67;3.70;;;15.00;99.90;;;;;;7307652;19;20202;-78
2023/11/19 00:22:37;;;;;;;14.93;4.00;;;15.00;99.90;;;;;;7315176;19;20194;-81
2023/11/19 00:25:03;;;;;;;13.13;3.80;;;14.90;99.90;;;;;;7304948;19;20190;-81
2023/11/19 00:27:29;;;;;;;17.57;4.57;;;14.90;99.90;;;;;;7299587;19;20216;-80
2023/11/19 00:29:55;;;;;;;15.37;3.80;;;14.90;99.90;;;;;;7318749;19;20193;-81
2023/11/19 00:32:20;;;;;;;16.40;4.37;;;15.00;99.90;;;;;;7309660;19;20189;-81
2023/11/19 00:34:47;;;;;;;14.73;3.43;;;14.90;99.90;;;;;;7288301;19;20619;-81
2023/11/19 00:37:15;;;;;;;16.93;3.80;;;14.80;99.90;;;;;;7289706;19;20188;-80
2023/11/19 00:39:41;;;;;;;15.17;3.70;;;14.80;99.90;;;;;;7304080;19;20284;-81
2023/11/19 00:42:07;;;;;;;16.33;3.40;;;14.80;99.90;;;;;;7310711;19;20185;-80
2023/11/19 00:44:33;;;;;;;16.13;3.50;;;14.90;99.90;;;;;;7288403;19;20810;-81
2023/11/19 00:47:00;;;;;;;15.63;3.43;;;14.90;99.90;;;;;;7288364;19;20197;-81
2023/11/19 00:49:25;;;;;;;15.33;3.33;;;14.90;99.90;;;;;;7286304;19;20205;-81
2023/11/19 00:51:51;;;;;;;15.27;3.10;;;14.90;99.90;;;;;;7286988;19;20250;-81
2023/11/19 00:54:17;;;;;;;16.57;3.03;;;15.00;99.90;;;;;;7286693;19;20195;-81
2023/11/19 00:56:43;;;;;;;17.10;3.33;;;15.00;99.90;;;;;;7284855;19;20201;-80
2023/11/19 00:59:08;;;;;;;18.40;3.40;;;14.90;99.90;;;;;;7308020;19;20181;-82
2023/11/19 01:01:34;;;;;;;19.30;3.40;;;15.10;99.90;;;;;;7287641;19;20202;-81
2023/11/19 01:04:00;;;;;;;13.90;2.83;;;15.00;99.90;;;;;;7285923;19;20582;-81
2023/11/19 01:06:31;;;;;;;14.50;2.93;;;15.10;99.90;;;;;;7285900;19;20200;-82
2023/11/19 01:08:58;;;;;;;17.90;3.53;;;15.00;99.90;;;;;;7289291;19;20214;-80
2023/11/19 01:11:25;;;;;;;18.97;3.23;;;15.00;99.90;;;;;;7284825;19;20199;-81
2023/11/19 01:13:51;;;;;;;18.53;3.20;;;14.90;99.90;;;;;;7286053;19;20564;-81
2023/11/19 01:16:17;;;;;;;18.73;2.97;;;14.90;99.90;;;;;;7284697;19;20179;-80
2023/11/19 01:18:43;;;;;;;17.63;3.00;;;14.90;99.90;;;;;;7286301;19;20323;-80
2023/11/19 01:21:09;;;;;;;20.57;2.87;;;14.90;99.90;;;;;;7307827;19;20199;-81
2023/11/19 01:23:37;;;;;;;22.77;3.70;;;14.90;99.90;;;;;;7285084;19;20608;-81
2023/11/19 01:26:03;;;;;;;13.97;2.77;;;14.80;99.90;;;;;;7285690;19;20200;-81
2023/11/19 01:28:30;;;;;;;18.63;3.27;;;14.80;99.90;;;;;;7283406;19;20201;-81
2023/11/19 01:30:56;;;;;;;20.63;3.30;;;14.70;99.90;;;;;;7284532;19;20194;-81
2023/11/19 01:33:22;;;;;;;21.93;3.43;;;14.70;99.90;;;;;;7285406;19;20218;-81
2023/11/19 01:35:48;;;;;;;17.63;2.93;;;14.80;99.90;;;;;;7286234;19;20195;-81
2023/11/19 01:38:14;;;;;;;21.33;3.23;;;14.80;99.90;;;;;;7282773;19;20206;-81
2023/11/19 01:40:40;;;;;;;19.83;2.87;;;14.70;99.90;;;;;;7307594;19;21104;-81
2023/11/19 01:43:05;;;;;;;17.93;3.00;;;14.70;99.90;;;;;;7284954;19;20198;-82
2023/11/19 01:45:33;;;;;;;21.13;3.13;;;14.70;99.90;;;;;;7284669;19;20623;-82
2023/11/19 01:48:03;;;;;;;18.37;3.00;;;14.70;99.90;;;;;;7284243;19;21060;-82
2023/11/19 01:50:30;;;;;;;21.33;3.30;;;14.80;99.90;;;;;;7284375;19;20259;-82
2023/11/19 01:52:59;;;;;;;23.30;3.60;;;14.80;99.90;;;;;;7283236;19;20194;-81
2023/11/19 01:55:30;;;;;;;22.03;3.00;;;14.70;99.90;;;;;;7285306;19;20264;-81
2023/11/19 01:58:00;;;;;;;22.00;3.20;;;14.70;99.90;;;;;;7284321;19;20554;-81
2023/11/19 02:00:26;;;;;;;24.17;3.23;;;14.70;99.90;;;;;;7286031;19;20187;-81
2023/11/19 02:02:52;;;;;;;22.97;3.50;;;14.60;99.90;;;;;;7284069;19;20533;-81
2023/11/19 02:05:18;;;;;;;21.00;3.53;;;14.60;99.90;;;;;;7283979;19;20222;-81
2023/11/19 02:07:46;;;;;;;18.73;2.87;;;14.60;99.90;;;;;;7284537;19;20699;-81
2023/11/19 02:10:14;;;;;;;20.57;3.37;;;14.60;99.90;;;;;;7293649;19;20708;-80
2023/11/19 02:12:44;;;;;;;20.93;3.30;;;14.60;99.90;;;;;;7305078;19;20210;-81
2023/11/19 02:15:10;;;;;;;22.63;3.57;;;14.60;99.90;;;;;;7285699;19;20195;-82
2023/11/19 02:17:37;;;;;;;22.07;3.40;;;14.70;99.90;;;;;;7284690;19;20193;-81
2023/11/19 02:20:11;;;;;;;17.97;3.20;;;14.70;99.90;;;;;;7286032;19;20196;-81
2023/11/19 02:22:37;;;;;;;24.17;3.63;;;14.70;99.90;;;;;;7285326;19;20540;-81
2023/11/19 02:25:29;;;;;;;25.77;3.90;;;14.70;99.90;;;;;;7284984;19;20219;-82
2023/11/19 02:28:02;;;;;;;15.30;3.17;;;14.60;99.90;;;;;;7180733;19;2004583;-81
2023/11/19 02:30:28;;;;;;;21.03;2.80;;;14.60;99.90;;;;;;7292278;19;20194;-81
2023/11/19 02:32:58;;;;;;;22.53;3.53;;;14.50;99.90;;;;;;7298589;19;20604;-81
2023/11/19 02:35:27;;;;;;;26.13;3.30;;;14.50;99.90;;;;;;7297927;19;20617;-81
2023/11/19 02:37:57;;;;;;;21.90;3.07;;;14.60;99.90;;;;;;7297916;19;20199;-81
2023/11/19 02:40:24;;;;;;;18.50;2.97;;;14.60;99.90;;;;;;7298265;19;20218;-81
2023/11/19 02:42:51;;;;;;;23.27;3.27;;;14.60;99.90;;;;;;7298097;19;20562;-81
2023/11/19 02:45:17;;;;;;;19.07;2.87;;;14.70;99.90;;;;;;7296055;19;20210;-81
2023/11/19 02:47:44;;;;;;;22.77;2.87;;;14.60;99.90;;;;;;7301036;19;20194;-81
2023/11/19 02:50:16;;;;;;;19.37;2.90;;;14.60;99.90;;;;;;7319640;19;20285;-82
2023/11/19 02:52:42;;;;;;;27.00;3.70;;;14.50;99.90;;;;;;7292578;19;20190;-81
2023/11/19 02:55:12;;;;;;;25.43;3.80;;;14.60;99.90;;;;;;7320641;19;20197;-81
2023/11/19 02:57:51;;;;;;;23.93;3.50;;;14.50;99.90;;;;;;7296930;19;20710;-81
2023/11/19 03:00:24;;;;;;;19.30;3.33;;;14.40;99.90;;;;;;7195448;19;2004421;-81
2023/11/19 03:03:09;;;;;;;18.23;3.27;;;14.40;99.90;;;;;;7295579;19;20211;-81
2023/11/19 03:05:35;;;;;;;23.17;3.70;;;14.50;99.90;;;;;;7297969;19;20295;-81
2023/11/19 03:08:01;;;;;;;19.50;3.77;;;14.40;99.90;;;;;;7296724;19;20218;-81
2023/11/19 03:10:29;;;;;;;21.97;3.40;;;14.40;99.90;;;;;;7294432;19;20211;-81
2023/11/19 03:12:56;;;;;;;23.03;3.10;;;14.30;99.90;;;;;;7296865;19;20223;-82
2023/11/19 03:15:22;;;;;;;23.17;3.67;;;14.30;99.90;;;;;;7295596;19;20666;-81
2023/11/19 03:17:48;;;;;;;33.70;4.30;;;14.20;99.90;;;;;;7295172;19;20194;-81
2023/11/19 03:20:16;;;;;;;29.67;3.50;;;14.20;99.90;;;;;;7297704;19;20256;-81
2023/11/19 03:22:43;;;;;;;23.43;3.30;;;14.10;99.90;;;;;;7306924;19;20199;-80
2023/11/19 03:25:09;;;;;;;21.93;3.27;;;14.10;99.90;;;;;;7316122;19;20183;-81
2023/11/19 03:27:36;;;;;;;21.93;3.47;;;14.00;99.90;;;;;;7295860;19;20693;-81
2023/11/19 03:30:04;;;;;;;24.80;3.80;;;13.90;99.90;;;;;;7296979;19;20233;-81
2023/11/19 03:32:32;;;;;;;27.73;3.47;;;13.80;99.90;;;;;;7296410;19;20193;-81
2023/11/19 03:34:58;;;;;;;30.97;3.80;;;13.80;99.90;;;;;;7295661;19;20201;-81
2023/11/19 03:37:23;;;;;;;27.40;3.67;;;13.80;99.90;;;;;;7296664;19;20201;-81
2023/11/19 03:39:49;;;;;;;25.33;3.27;;;13.70;99.90;;;;;;7296205;19;20716;-80
2023/11/19 03:42:15;;;;;;;21.87;3.40;;;13.60;99.90;;;;;;7288674;19;20198;-81
2023/11/19 03:44:41;;;;;;;28.63;3.63;;;13.60;99.90;;;;;;7310331;19;20199;-81
2023/11/19 03:47:06;;;;;;;28.67;3.47;;;13.50;99.90;;;;;;7296275;19;20715;-81
2023/11/19 03:49:32;;;;;;;26.13;3.63;;;13.50;99.90;;;;;;7295063;19;20183;-81
2023/11/19 03:51:58;;;;;;;26.17;4.27;;;13.60;99.90;;;;;;7294852;19;20220;-82
2023/11/19 03:54:24;;;;;;;24.43;3.20;;;13.70;99.90;;;;;;7293587;19;20195;-81
2023/11/19 03:56:49;;;;;;;31.57;4.17;;;13.80;99.90;;;;;;7314778;19;20178;-81
2023/11/19 03:59:15;;;;;;;28.10;3.87;;;13.80;99.90;;;;;;7316046;19;20198;-80
2023/11/19 04:01:41;;;;;;;24.93;3.90;;;14.00;99.90;;;;;;7312888;19;20190;-81
2023/11/19 04:04:07;;;;;;;30.30;3.87;;;14.00;99.90;;;;;;7289007;19;20229;-80
2023/11/19 04:06:33;;;;;;;31.97;3.70;;;14.10;99.90;;;;;;7289202;19;20213;-80
2023/11/19 04:08:58;;;;;;;23.33;3.37;;;14.10;99.90;;;;;;7288682;19;20215;-81
2023/11/19 04:11:24;;;;;;;26.17;4.23;;;14.00;99.90;;;;;;7288643;19;20198;-81
2023/11/19 04:13:50;;;;;;;27.20;3.70;;;14.00;99.90;;;;;;7288057;19;20201;-80
2023/11/19 04:16:15;;;;;;;30.70;4.00;;;13.90;99.90;;;;;;7286154;19;20205;-80
2023/11/19 04:18:41;;;;;;;29.67;4.00;;;13.80;99.90;;;;;;7310038;19;20206;-81
2023/11/19 04:21:08;;;;;;;33.03;4.60;;;13.70;99.90;;;;;;7288346;19;20198;-81
2023/11/19 04:23:34;;;;;;;28.57;4.00;;;13.70;99.90;;;;;;7285229;19;20178;-81
2023/11/19 04:26:03;;;;;;;31.47;4.27;;;13.60;99.90;;;;;;7288336;19;20206;-80
2023/11/19 04:28:30;;;;;;;31.13;4.50;;;13.70;99.90;;;;;;7287002;19;20209;-81
2023/11/19 04:30:56;;;;;;;29.33;4.10;;;13.70;99.90;;;;;;7286276;19;20198;-81
2023/11/19 04:33:21;;;;;;;29.20;4.20;;;13.80;99.90;;;;;;7289111;19;20210;-81
2023/11/19 04:35:47;;;;;;;27.83;4.37;;;13.90;99.90;;;;;;7286744;19;20199;-81
2023/11/19 04:38:13;;;;;;;36.63;4.80;;;13.90;99.90;;;;;;7294531;19;20185;-81
2023/11/19 04:40:39;;;;;;;26.47;4.00;;;13.90;99.90;;;;;;7307110;19;20209;-81
2023/11/19 04:43:04;;;;;;;31.00;3.97;;;14.00;99.90;;;;;;7285694;19;20194;-81
2023/11/19 04:45:30;;;;;;;35.00;4.67;;;14.00;99.90;;;;;;7285408;19;20193;-81
2023/11/19 04:47:56;;;;;;;23.27;3.87;;;14.10;99.90;;;;;;7285559;19;20221;-81
2023/11/19 04:50:21;;;;;;;28.20;4.53;;;14.10;99.90;;;;;;7285665;19;20198;-81
2023/11/19 04:52:47;;;;;;;34.17;4.50;;;14.10;99.90;;;;;;7283761;19;20202;-80
2023/11/19 04:55:14;;;;;;;27.77;3.80;;;14.10;99.90;;;;;;7292615;19;20197;-81
2023/11/19 04:57:40;;;;;;;26.70;3.73;;;14.00;99.90;;;;;;7306323;19;20187;-81
2023/11/19 05:00:07;;;;;;;24.90;3.87;;;14.00;99.90;;;;;;7285570;19;20182;-82
2023/11/19 05:02:34;;;;;;;26.30;4.23;;;13.90;99.90;;;;;;7286051;19;20187;-81
2023/11/19 05:05:01;;;;;;;31.03;4.73;;;13.90;99.90;;;;;;7284281;19;20195;-81
2023/11/19 05:07:27;;;;;;;30.77;4.27;;;13.80;99.90;;;;;;7285572;19;20245;-81
2023/11/19 05:09:52;;;;;;;29.47;4.13;;;13.60;99.90;;;;;;7282028;19;20207;-81
2023/11/19 05:12:18;;;;;;;25.33;3.70;;;13.60;99.90;;;;;;7283903;19;20180;-81
2023/11/19 05:14:49;;;;;;;33.50;4.80;;;13.50;99.90;;;;;;7285105;19;20196;-80
2023/11/19 05:17:15;;;;;;;31.70;4.47;;;13.40;99.90;;;;;;7282973;19;20530;-80
2023/11/19 05:19:40;;;;;;;31.77;4.70;;;13.50;99.90;;;;;;7308516;19;20194;-81
2023/11/19 05:22:07;;;;;;;30.23;4.40;;;13.50;99.90;;;;;;7283719;19;20192;-81
2023/11/19 05:24:33;;;;;;;29.97;4.30;;;13.50;99.90;;;;;;7284065;19;20538;-80
2023/11/19 05:26:59;;;;;;;29.20;4.70;;;13.60;99.90;;;;;;7285303;19;20213;-81
2023/11/19 05:29:24;;;;;;;40.17;4.83;;;13.60;99.90;;;;;;7286076;19;20189;-81
2023/11/19 05:31:50;;;;;;;33.73;4.73;;;13.50;99.90;;;;;;7284918;19;20657;-81
2023/11/19 05:34:16;;;;;;;35.80;5.20;;;13.50;99.90;;;;;;7284323;19;20192;-80
2023/11/19 05:36:42;;;;;;;35.50;4.83;;;13.60;99.90;;;;;;7307139;19;20179;-81
2023/11/19 05:39:08;;;;;;;32.37;4.03;;;13.70;99.90;;;;;;7284956;19;20187;-81
2023/11/19 05:41:34;;;;;;;31.93;3.97;;;13.70;99.90;;;;;;7284161;19;20174;-80
2023/11/19 05:43:59;;;;;;;31.47;4.47;;;13.70;99.90;;;;;;7285693;19;20261;-81
2023/11/19 05:46:27;;;;;;;33.53;4.93;;;13.70;99.90;;;;;;7283441;19;20228;-81
2023/11/19 05:48:52;;;;;;;33.67;4.40;;;13.70;99.90;;;;;;7284881;19;20677;-81
2023/11/19 05:51:18;;;;;;;36.63;4.60;;;13.70;99.90;;;;;;7283907;19;20193;-82
2023/11/19 05:53:47;;;;;;;28.30;4.20;;;13.70;99.90;;;;;;7294794;19;20235;-81
2023/11/19 05:56:13;;;;;;;31.80;4.27;;;13.60;99.90;;;;;;7306485;19;20201;-81
2023/11/19 05:58:40;;;;;;;33.50;4.67;;;13.60;99.90;;;;;;7284516;19;20574;-81
2023/11/19 06:01:07;;;;;;;39.23;4.57;;;13.40;99.90;;;;;;7285655;19;20187;-80
2023/11/19 06:03:33;;;;;;;31.77;4.30;;;13.30;99.90;;;;;;7284193;19;20551;-81
2023/11/19 06:05:59;;;;;;;32.07;4.27;;;13.20;99.90;;;;;;7289226;19;20218;-82
2023/11/19 06:08:26;;;;;;;33.10;4.60;;;13.10;99.90;;;;;;7289774;19;20532;-81
2023/11/19 06:10:52;;;;;;;31.70;4.47;;;13.10;99.90;;;;;;7285070;19;20209;-81
2023/11/19 06:13:19;;;;;;;28.57;4.60;;;13.10;99.90;;;;;;7284953;19;20189;-82
2023/11/19 06:15:45;;;;;;;32.80;4.67;;;13.10;99.90;;;;;;7284268;19;20282;-81
2023/11/19 06:18:14;;;;;;;27.90;3.80;;;13.20;99.90;;;;;;7304777;19;20199;-82
2023/11/19 06:20:40;;;;;;;31.13;4.33;;;13.10;99.90;;;;;;7284396;19;20181;-81
2023/11/19 06:23:06;;;;;;;27.20;4.53;;;13.00;99.90;;;;;;7282215;19;20192;-81
2023/11/19 06:25:32;;;;;;;29.27;4.77;;;13.00;99.90;;;;;;7283038;19;20268;-81
2023/11/19 06:27:58;;;;;;;32.63;4.83;;;12.90;99.90;;;;;;7281872;19;20200;-80
2023/11/19 06:30:24;;;;;;;28.20;4.80;;;12.90;99.90;;;;;;7281480;19;20195;-80
2023/11/19 06:32:51;;;;;;;37.43;4.73;;;12.80;99.90;;;;;;7284018;19;20206;-80
2023/11/19 06:35:17;;;;;;;36.47;4.77;;;12.80;99.90;;;;;;7282049;19;20214;-80
2023/11/19 06:37:43;;;;;;;40.43;4.50;;;12.80;99.90;;;;;;7304574;19;20192;-81
2023/11/19 06:40:09;;;;;;;35.73;5.13;;;12.80;99.90;;;;;;7284787;19;20545;-81
2023/11/19 06:42:35;;;;;;;35.57;6.77;;;12.90;99.90;;;;;;7280907;19;20215;-80
2023/11/19 06:45:02;;;;;;;37.67;5.77;;;12.80;99.90;;;;;;7283397;19;20272;-81
2023/11/19 06:47:28;;;;;;;35.57;7.07;;;12.80;99.90;;;;;;7282018;19;20200;-81
2023/11/19 06:49:54;;;;;;;31.73;5.33;;;12.80;99.90;;;;;;7283133;19;20185;-80
2023/11/19 06:52:21;;;;;;;34.40;6.93;;;12.70;99.90;;;;;;7280924;19;20190;-81
2023/11/19 06:54:47;;;;;;;38.23;7.07;;;12.70;99.90;;;;;;7282623;19;20670;-80
2023/11/19 06:57:13;;;;;;;36.30;6.33;;;12.70;99.90;;;;;;7305151;19;20291;-81
2023/11/19 06:59:39;;;;;;;36.80;7.03;;;12.80;99.90;;;;;;7281400;19;20197;-80
2023/11/19 07:02:06;;;;;;;36.97;5.63;;;12.80;99.90;;;;;;7282658;19;20321;-80
2023/11/19 07:04:33;;;;;;;40.27;5.83;;;12.80;99.90;;;;;;7280375;19;20538;-80
2023/11/19 07:07:02;;;;;;;35.67;6.00;;;12.80;99.90;;;;;;7283776;19;20531;-80
2023/11/19 07:09:27;;;;;;;37.77;6.50;;;12.80;99.90;;;;;;7255926;19;20661;-81
2023/11/19 07:11:53;;;;;;;33.93;6.63;;;12.90;99.90;;;;;;7280779;19;20294;-79
2023/11/19 07:14:19;;;;;;;35.97;5.90;;;12.90;99.90;;;;;;7281748;19;20349;-80
2023/11/19 07:16:50;;;;;;;40.13;5.80;;;12.90;99.90;;;;;;7287510;19;20190;-80
2023/11/19 07:19:16;;;;;;;34.83;5.93;;;12.90;99.90;;;;;;7287841;19;20196;-80
2023/11/19 07:21:44;;;;;;;45.70;6.20;;;13.00;99.90;;;;;;7310300;19;20204;-80
2023/11/19 07:24:13;;;;;;;43.37;7.13;;;12.90;99.90;;;;;;7287925;19;20201;-79
2023/11/19 07:26:45;;;;;;;40.50;7.00;;;12.80;99.90;;;;;;7288887;19;20207;-81
2023/11/19 07:29:11;;;;;;;38.00;5.20;;;12.90;99.90;;;;;;7287810;19;20197;-80
2023/11/19 07:31:37;;;;;;;37.27;5.50;;;12.80;99.90;;;;;;7286626;19;20211;-80
2023/11/19 07:34:03;;;;;;;38.27;5.00;;;12.80;99.90;;;;;;7289159;19;20651;-81
2023/11/19 07:36:29;;;;;;;40.63;5.47;;;12.80;99.90;;;;;;7288629;19;20202;-80
2023/11/19 07:38:57;;;;;;;33.40;4.53;;;12.80;99.90;;;;;;7286870;19;20190;-81
2023/11/19 07:41:25;;;;;;;36.30;4.80;;;12.80;99.90;;;;;;7287063;19;20188;-80
2023/11/19 07:43:51;;;;;;;32.80;4.80;;;12.80;99.90;;;;;;7287408;19;20288;-80
2023/11/19 07:46:19;;;;;;;35.83;5.90;;;12.70;99.90;;;;;;7286638;19;20192;-79
2023/11/19 07:48:46;;;;;;;37.43;4.47;;;12.70;99.90;;;;;;7295021;19;20185;-80
2023/11/19 07:51:13;;;;;;;34.10;4.67;;;12.70;99.90;;;;;;7310562;19;20181;-80
2023/11/19 07:53:40;;;;;;;31.87;4.70;;;12.80;99.90;;;;;;7288542;19;20240;-79
2023/11/19 07:56:07;;;;;;;37.47;4.50;;;12.90;99.90;;;;;;7288392;19;20279;-78
2023/11/19 07:58:32;;;;;;;37.67;5.53;;;12.90;99.90;;;;;;7288683;19;20183;-79
2023/11/19 08:00:58;;;;;;;33.70;4.70;;;13.00;99.90;;;;;;7287109;19;20548;-78
2023/11/19 08:03:24;;;;;;;35.53;5.00;;;13.00;99.90;;;;;;7285930;19;20185;-78
2023/11/19 08:05:50;;;;;;;30.83;6.33;;;13.20;99.90;;;;;;7285484;19;20715;-78
2023/11/19 08:08:16;;;;;;;34.67;4.27;;;13.20;99.90;;;;;;7286528;19;20916;-78
2023/11/19 08:10:43;;;;;;;31.20;5.50;;;13.10;99.90;;;;;;7307973;19;20315;-78
2023/11/19 08:13:09;;;;;;;29.37;5.00;;;13.10;99.90;;;;;;7286728;19;20189;-79
2023/11/19 08:15:34;;;;;;;32.70;4.83;;;13.20;99.90;;;;;;7287047;19;20182;-79
2023/11/19 08:18:00;;;;;;;28.30;5.20;;;13.20;99.90;;;;;;7285935;19;20249;-78
2023/11/19 08:20:26;;;;;;;27.73;4.07;;;13.20;99.90;;;;;;7287005;19;20210;-78
2023/11/19 08:22:51;;;;;;;29.90;4.73;;;13.40;99.90;;;;;;7286665;19;20661;-78
2023/11/19 08:25:17;;;;;;;27.40;4.43;;;13.50;99.90;;;;;;7285160;19;20192;-78
2023/11/19 08:27:43;;;;;;;32.03;4.67;;;13.70;99.90;;;;;;7308485;19;20202;-81
2023/11/19 08:30:10;;;;;;;32.57;4.57;;;13.90;99.90;;;;;;7283630;19;20579;-79
2023/11/19 08:32:36;;;;;;;34.70;5.03;;;14.00;99.90;;;;;;7286500;19;20184;-79
2023/11/19 08:35:01;;;;;;;27.33;4.67;;;14.00;99.90;;;;;;7284813;19;20208;-78
2023/11/19 08:37:27;;;;;;;29.77;5.00;;;14.10;99.90;;;;;;7285049;19;20194;-78
2023/11/19 08:39:53;;;;;;;30.57;4.30;;;14.10;99.90;;;;;;7286222;19;20185;-79
2023/11/19 08:42:19;;;;;;;34.83;5.43;;;14.10;99.90;;;;;;7284377;19;20207;-79
2023/11/19 08:44:50;;;;;;;26.43;4.20;;;14.00;99.90;;;;;;7296247;19;20280;-78
2023/11/19 08:47:17;;;;;;;30.07;4.17;;;14.10;99.90;;;;;;7285815;19;20274;-78
2023/11/19 08:49:44;;;;;;;28.90;4.47;;;14.20;99.90;;;;;;7306341;19;20284;-78
2023/11/19 08:52:10;;;;;;;29.60;3.97;;;14.30;99.90;;;;;;7286291;19;20197;-79
2023/11/19 08:54:36;;;;;;;25.47;4.80;;;14.30;99.90;;;;;;7286163;19;21015;-79
2023/11/19 08:57:03;;;;;;;29.80;4.43;;;14.30;99.90;;;;;;7285873;19;20189;-78
2023/11/19 08:59:29;;;;;;;30.30;5.30;;;14.20;99.90;;;;;;7285469;19;20232;-78
2023/11/19 09:01:55;;;;;;;27.80;5.27;;;14.20;99.90;;;;;;7286241;19;20202;-78
2023/11/19 09:04:22;;;;;;;22.57;3.93;;;14.10;99.90;;;;;;7284076;19;20224;-78
2023/11/19 09:06:49;;;;;;;23.47;4.40;;;14.00;99.90;;;;;;7286011;19;20200;-78
2023/11/19 09:09:15;;;;;;;28.23;4.67;;;14.00;99.90;;;;;;7303762;19;20544;-77
2023/11/19 09:11:41;;;;;;;26.70;5.23;;;14.00;99.90;;;;;;7299221;19;20676;-78
2023/11/19 09:14:07;;;;;;;28.40;5.87;;;13.90;99.90;;;;;;7284171;19;20226;-79
2023/11/19 09:16:32;;;;;;;24.20;4.37;;;13.90;99.90;;;;;;7283590;19;20198;-79
2023/11/19 09:18:59;;;;;;;26.57;4.50;;;13.80;99.90;;;;;;7284767;19;20202;-79
2023/11/19 09:21:26;;;;;;;28.33;5.03;;;13.80;99.90;;;;;;7284950;19;20190;-79
2023/11/19 09:23:53;;;;;;;26.67;4.40;;;13.90;99.90;;;;;;7283387;19;20553;-78
2023/11/19 09:26:19;;;;;;;32.77;4.80;;;14.00;99.90;;;;;;7286425;19;20194;-78
2023/11/19 09:28:45;;;;;;;28.87;4.67;;;14.10;99.90;;;;;;7296101;19;20281;-77
2023/11/19 09:31:18;;;;;;;29.47;6.43;;;14.20;99.90;;;;;;7302680;19;20183;-78
2023/11/19 09:33:44;;;;;;;28.13;6.30;;;14.20;99.90;;;;;;7284376;19;20188;-79
2023/11/19 09:36:13;;;;;;;26.43;4.63;;;14.20;99.90;;;;;;7286233;19;20190;-79
2023/11/19 09:38:39;;;;;;;35.63;5.40;;;14.30;99.90;;;;;;7283410;19;20254;-79
2023/11/19 09:41:09;;;;;;;27.53;4.87;;;14.30;99.90;;;;;;7283069;19;20199;-79
2023/11/19 09:43:38;;;;;;;28.03;4.97;;;14.20;99.90;;;;;;7284114;19;20961;-80
2023/11/19 09:46:11;;;;;;;24.63;4.73;;;14.10;99.90;;;;;;7283609;19;20611;-78
2023/11/19 09:48:38;;;;;;;25.13;4.57;;;14.10;99.90;;;;;;7281731;19;20720;-79
2023/11/19 09:51:11;;;;;;;20.93;4.00;;;14.20;99.90;;;;;;7282439;19;20567;-79
2023/11/19 09:53:37;;;;;;;27.53;4.97;;;14.40;99.90;;;;;;7285075;19;20191;-84
2023/11/19 09:56:05;;;;;;;26.90;5.97;;;14.50;99.90;;;;;;7285072;19;20222;-84
2023/11/19 09:58:32;;;;;;;25.70;4.57;;;15.00;99.90;;;;;;7284796;19;20195;-84
2023/11/19 10:01:07;;;;;;;21.93;4.83;;;15.50;99.90;;;;;;7285535;19;20253;-84
2023/11/19 10:03:35;;;;;;;22.50;3.77;;;16.20;99.90;;;;;;7283496;19;20197;-85
2023/11/19 10:06:01;;;;;;;27.67;4.27;;;16.80;99.90;;;;;;7284567;19;20192;-83
2023/11/19 10:08:27;;;;;;;25.67;4.20;;;17.50;99.90;;;;;;7283859;19;20543;-84
2023/11/19 10:10:53;;;;;;;25.63;4.10;;;17.50;99.90;;;;;;7284526;19;20187;-83
2023/11/19 10:13:19;;;;;;;25.27;3.80;;;17.90;99.90;;;;;;7285380;19;20707;-85
2023/11/19 10:15:45;;;;;;;22.90;3.77;;;18.40;99.90;;;;;;7299624;19;20199;-83
2023/11/19 10:18:13;;;;;;;20.73;3.70;;;18.10;99.90;;;;;;7308259;19;20195;-84
2023/11/19 10:20:43;;;;;;;24.60;4.77;;;17.80;99.90;;;;;;7285056;19;20195;-85
2023/11/19 10:23:10;;;;;;;22.17;3.87;;;17.80;99.90;;;;;;7283477;19;20231;-85
2023/11/19 10:25:36;;;;;;;22.77;3.70;;;17.40;99.90;;;;;;7284244;19;20193;-84
2023/11/19 10:28:03;;;;;;;20.87;3.97;;;17.40;99.90;;;;;;7283286;19;20190;-84
2023/11/19 10:30:30;;;;;;;22.53;4.43;;;17.30;99.90;;;;;;7284369;19;20553;-84
2023/11/19 10:33:08;;;;;;;23.17;4.50;;;17.40;99.90;;;;;;7284081;19;20225;-84
2023/11/19 10:35:36;;;;;;;23.00;4.07;;;17.30;99.90;;;;;;7283426;19;20202;-84
2023/11/19 10:38:15;;;;;;;25.57;5.47;;;17.40;99.90;;;;;;7281279;19;20198;-85
2023/11/19 10:40:41;;;;;;;17.60;3.57;;;17.70;99.90;;;;;;7285878;19;20195;-84
2023/11/19 10:43:07;;;;;;;21.20;4.30;;;18.20;99.90;;;;;;7282258;19;20284;-82
2023/11/19 10:45:34;;;;;;;21.00;4.33;;;19.10;99.90;;;;;;7280196;19;20192;-81
2023/11/19 10:48:02;;;;;;;24.40;4.27;;;20.10;99.90;;;;;;7280672;19;20198;-81
2023/11/19 10:50:29;;;;;;;20.70;4.33;;;20.30;99.90;;;;;;7280542;19;20192;-81
2023/11/19 10:53:00;;;;;;;20.57;4.07;;;19.80;99.90;;;;;;7289276;19;20204;-81
2023/11/19 10:55:30;;;;;;;18.87;3.70;;;19.40;99.90;;;;;;7287275;19;20660;-81
2023/11/19 10:58:00;;;;;;;25.53;4.37;;;18.90;99.90;;;;;;7289682;19;20216;-81
2023/11/19 11:00:31;;;;;;;20.80;4.23;;;18.50;99.90;;;;;;7289835;19;20203;-81
2023/11/19 11:03:01;;;;;;;23.83;4.10;;;18.00;99.90;;;;;;7287494;19;20845;-80
2023/11/19 11:05:29;;;;;;;21.77;4.00;;;17.50;99.90;;;;;;7289172;19;20533;-81
2023/11/19 11:07:56;;;;;;;27.77;5.63;;;16.80;99.90;;;;;;7289814;19;20203;-82
2023/11/19 11:10:25;;;;;;;31.37;5.83;;;16.70;99.90;;;;;;7289285;19;20194;-81
2023/11/19 11:12:58;;;;;;;27.97;5.57;;;16.50;99.90;;;;;;7287023;19;20550;-81
2023/11/19 11:15:31;;;;;;;30.00;5.70;;;16.10;99.90;;;;;;7286788;19;20713;-80
2023/11/19 11:18:01;;;;;;;33.90;5.27;;;15.90;99.90;;;;;;7288261;19;20384;-81
2023/11/19 11:20:31;;;;;;;29.70;5.83;;;15.60;99.90;;;;;;7289084;19;20762;-80
2023/11/19 11:23:18;;;;;;;26.67;4.90;;;15.70;99.90;;;;;;7287515;19;20220;-83
2023/11/19 11:25:59;;;;;;;23.87;4.10;;;16.00;99.90;;;;;;7289580;19;20655;-84
2023/11/19 11:28:56;;;;;;;34.23;4.77;;;16.70;99.90;;;;;;7186536;19;2004751;-84
2023/11/19 11:31:43;;;;;;;26.90;5.50;;;17.40;99.90;;;;;;7186130;19;2004559;-84
2023/11/19 11:34:27;;;;;;;27.03;5.77;;;17.70;99.90;;;;;;7289388;19;20255;-84
2023/11/19 11:37:16;;;;;;;25.73;5.10;;;18.00;99.90;;;;;;7186669;19;2004984;-84
2023/11/19 11:39:42;;;;;;;19.20;4.33;;;18.30;99.90;;;;;;7287888;19;20189;-84
2023/11/19 11:42:34;;;;;;;22.63;4.00;;;18.50;99.90;;;;;;7288528;19;20338;-84
2023/11/19 11:45:00;;;;;;;21.17;3.50;;;18.90;99.90;;;;;;7182138;19;2004439;-84
2023/11/19 11:47:46;;;;;;;22.33;3.87;;;19.00;99.90;;;;;;7285156;19;20218;-84
2023/11/19 11:50:16;;;;;;;19.87;3.30;;;19.20;99.90;;;;;;7286680;19;20203;-84
2023/11/19 11:52:57;;;;;;;17.80;3.90;;;19.30;99.90;;;;;;7288399;19;20256;-84
2023/11/19 11:55:26;;;;;;;20.27;4.33;;;19.50;99.90;;;;;;7184468;19;2004432;-83
2023/11/19 11:57:52;;;;;;;22.60;5.00;;;19.50;99.90;;;;;;7287883;19;20182;-84
2023/11/19 12:00:27;;;;;;;15.57;3.90;;;19.20;99.90;;;;;;7288805;19;20195;-84
2023/11/19 12:02:59;;;;;;;18.83;3.97;;;18.70;99.90;;;;;;7285701;19;20194;-84
2023/11/19 12:05:25;;;;;;;20.10;5.13;;;18.10;99.90;;;;;;7287233;19;20220;-84
2023/11/19 12:08:01;;;;;;;23.07;5.60;;;17.70;99.90;;;;;;7286892;19;20196;-84
2023/11/19 12:10:33;;;;;;;26.47;5.17;;;17.50;99.90;;;;;;7287747;19;20605;-84
2023/11/19 12:13:00;;;;;;;21.07;5.37;;;16.90;99.90;;;;;;7285758;19;20202;-84
2023/11/19 12:15:27;;;;;;;19.50;5.57;;;16.80;99.90;;;;;;7286292;19;20183;-84
2023/11/19 12:17:56;;;;;;;20.07;4.57;;;16.60;99.90;;;;;;7287031;19;20192;-84
2023/11/19 12:20:24;;;;;;;21.30;4.70;;;16.40;99.90;;;;;;7286219;19;20198;-83
2023/11/19 12:22:50;;;;;;;23.90;3.87;;;16.20;99.90;;;;;;7287354;19;20193;-83
2023/11/19 12:25:17;;;;;;;25.03;3.90;;;16.20;99.90;;;;;;7299263;19;20182;-83
2023/11/19 12:27:44;;;;;;;23.90;3.97;;;16.10;99.90;;;;;;7315287;19;20184;-84
2023/11/19 12:30:10;;;;;;;23.77;3.93;;;16.00;99.90;;;;;;7286376;19;20725;-84
2023/11/19 12:32:42;;;;;;;24.37;5.73;;;15.90;99.90;;;;;;7289489;19;20210;-84
2023/11/19 12:35:12;;;;;;;28.20;5.07;;;16.00;99.90;;;;;;7285391;19;20188;-83
2023/11/19 12:37:46;;;;;;;25.00;4.90;;;16.10;99.90;;;;;;7286517;19;20191;-84